createdAt,value
2023-05-06T00:00:40.253Z,2415.00
2023-05-06T00:01:40.256Z,2416.00
2023-05-06T00:02:40.328Z,2415.00
2023-05-06T00:03:40.345Z,2411.00
2023-05-06T00:04:40.315Z,2411.00
2023-05-06T00:05:40.299Z,2407.00
2023-05-06T00:06:40.347Z,2408.00
2023-05-06T00:07:40.405Z,2404.00
2023-05-06T00:08:40.343Z,2416.00
2023-05-06T00:09:40.419Z,2404.00
2023-05-06T00:10:40.352Z,2395.00
2023-05-06T00:11:40.429Z,2402.00
2023-05-06T00:12:40.463Z,2400.00
2023-05-06T00:13:40.458Z,2404.00
2023-05-06T00:14:40.487Z,2396.00
2023-05-06T00:15:40.497Z,2388.00
2023-05-06T00:16:40.583Z,2382.00
2023-05-06T00:17:40.563Z,2386.00
2023-05-06T00:18:40.508Z,2390.00
2023-05-06T00:19:40.542Z,2400.00
2023-05-06T00:20:40.593Z,2396.00
2023-05-06T00:21:40.545Z,2392.00
2023-05-06T00:22:40.606Z,2396.00
2023-05-06T00:23:40.632Z,2392.00
2023-05-06T00:24:40.653Z,2394.00
2023-05-06T00:25:40.676Z,2395.00
2023-05-06T00:26:40.656Z,2391.00
2023-05-06T00:27:40.760Z,2388.00
2023-05-06T00:28:40.748Z,2380.00
2023-05-06T00:29:40.775Z,2379.00
2023-05-06T00:30:40.808Z,2393.00
2023-05-06T00:31:40.813Z,2402.00
2023-05-06T00:32:40.840Z,2406.00
2023-05-06T00:33:40.784Z,2403.00
2023-05-06T00:34:40.791Z,2405.00
2023-05-06T00:35:40.794Z,2406.00
2023-05-06T00:36:40.826Z,2395.00
2023-05-06T00:37:41.005Z,2399.00
2023-05-06T00:38:40.834Z,2397.00
2023-05-06T00:39:40.832Z,2396.00
2023-05-06T00:40:40.877Z,2395.00
2023-05-06T00:41:40.878Z,2389.00
2023-05-06T00:42:40.890Z,2394.00
2023-05-06T00:43:41.021Z,2388.00
2023-05-06T00:44:41.117Z,2399.00
2023-05-06T00:45:40.995Z,2391.00
2023-05-06T00:46:41.188Z,2390.00
2023-05-06T00:47:41.032Z,2396.00
2023-05-06T00:48:41.072Z,2391.00
2023-05-06T00:49:41.049Z,2379.00
2023-05-06T00:50:41.162Z,2390.00
2023-05-06T00:51:41.209Z,2381.00
2023-05-06T00:52:41.096Z,2387.00
2023-05-06T00:53:41.430Z,2393.00
2023-05-06T00:54:41.136Z,2395.00
2023-05-06T00:55:41.129Z,2392.00
2023-05-06T00:56:41.163Z,2385.00
2023-05-06T00:57:41.223Z,2387.00
2023-05-06T00:58:41.181Z,2374.00
2023-05-06T00:59:41.203Z,2374.00
2023-05-06T01:00:41.197Z,2375.00
2023-05-06T01:01:41.318Z,2365.00
2023-05-06T01:02:47.611Z,2362.00
2023-05-06T01:03:42.398Z,2362.00
2023-05-06T01:04:41.255Z,2364.00
2023-05-06T01:05:41.253Z,2365.00
2023-05-06T01:06:41.272Z,2366.00
2023-05-06T01:07:41.277Z,2383.00
2023-05-06T01:08:41.235Z,2365.00
2023-05-06T01:09:41.248Z,2368.00
2023-05-06T01:10:41.190Z,2367.00
2023-05-06T01:11:41.194Z,2374.00
2023-05-06T01:12:41.212Z,2363.00
2023-05-06T01:13:41.222Z,2357.00
2023-05-06T01:14:41.180Z,2353.00
2023-05-06T01:15:41.182Z,2369.00
2023-05-06T01:16:41.217Z,2364.00
2023-05-06T01:17:41.453Z,2364.00
2023-05-06T01:18:41.193Z,2359.00
2023-05-06T01:19:41.143Z,2360.00
2023-05-06T01:20:41.222Z,2352.00
2023-05-06T01:21:41.153Z,2366.00
2023-05-06T01:22:41.941Z,2366.00
2023-05-06T01:23:41.243Z,2375.00
2023-05-06T01:24:41.239Z,2352.00
2023-05-06T01:25:41.267Z,2381.00
2023-05-06T01:26:41.265Z,2353.00
2023-05-06T01:27:41.254Z,2356.00
2023-05-06T01:28:41.323Z,2351.00
2023-05-06T01:29:41.318Z,2350.00
2023-05-06T01:30:41.313Z,2343.00
2023-05-06T01:31:41.397Z,2336.00
2023-05-06T01:32:41.481Z,2335.00
2023-05-06T01:33:41.412Z,2330.00
2023-05-06T01:34:41.495Z,2318.00
2023-05-06T01:35:41.436Z,2328.00
2023-05-06T01:36:42.448Z,2329.00
2023-05-06T01:37:41.478Z,2337.00
2023-05-06T01:38:41.490Z,2329.00
2023-05-06T01:39:42.012Z,2324.00
2023-05-06T01:40:41.591Z,2318.00
2023-05-06T01:41:41.564Z,2312.00
2023-05-06T01:42:41.666Z,2294.00
2023-05-06T01:43:41.685Z,2304.00
2023-05-06T01:44:41.623Z,2308.00
2023-05-06T01:45:41.620Z,2307.00
2023-05-06T01:46:41.777Z,2303.00
2023-05-06T01:47:41.687Z,2299.00
2023-05-06T01:48:41.701Z,2310.00
2023-05-06T01:49:41.724Z,2304.00
2023-05-06T01:50:41.716Z,2303.00
2023-05-06T01:51:41.745Z,2298.00
2023-05-06T01:52:41.772Z,2291.00
2023-05-06T01:53:41.776Z,2301.00
2023-05-06T01:54:41.779Z,2302.00
2023-05-06T01:55:41.795Z,2294.00
2023-05-06T01:56:41.807Z,2301.00
2023-05-06T01:57:41.820Z,2308.00
2023-05-06T01:58:41.867Z,2302.00
2023-05-06T01:59:41.881Z,2311.00
2023-05-06T02:00:41.884Z,2308.00
2023-05-06T02:01:41.961Z,2314.00
2023-05-06T02:02:42.005Z,2299.00
2023-05-06T02:03:41.979Z,2306.00
2023-05-06T02:04:41.965Z,2298.00
2023-05-06T02:05:42.019Z,2311.00
2023-05-06T02:06:41.987Z,2305.00
2023-05-06T02:07:42.055Z,2295.00
2023-05-06T02:08:42.067Z,2303.00
2023-05-06T02:09:42.083Z,2309.00
2023-05-06T02:10:42.102Z,2304.00
2023-05-06T02:11:42.161Z,2300.00
2023-05-06T02:12:42.217Z,2293.00
2023-05-06T02:13:42.194Z,2303.00
2023-05-06T02:14:42.206Z,2285.00
2023-05-06T02:15:42.238Z,2291.00
2023-05-06T02:16:42.225Z,2304.00
2023-05-06T02:17:42.242Z,2302.00
2023-05-06T02:18:42.275Z,2293.00
2023-05-06T02:19:42.365Z,2298.00
2023-05-06T02:20:42.324Z,2292.00
2023-05-06T02:21:42.332Z,2277.00
2023-05-06T02:22:42.422Z,2286.00
2023-05-06T02:23:42.416Z,2288.00
2023-05-06T02:24:42.391Z,2277.00
2023-05-06T02:25:42.405Z,2280.00
2023-05-06T02:26:42.433Z,2283.00
2023-05-06T02:27:42.428Z,2278.00
2023-05-06T02:28:42.480Z,2281.00
2023-05-06T02:29:42.513Z,2275.00
2023-05-06T02:30:42.529Z,2273.00
2023-05-06T02:31:42.586Z,2273.00
2023-05-06T02:32:42.623Z,2274.00
2023-05-06T02:33:42.650Z,2273.00
2023-05-06T02:34:42.834Z,2273.00
2023-05-06T02:35:42.794Z,2276.00
2023-05-06T02:36:42.801Z,2274.00
2023-05-06T02:37:42.749Z,2265.00
2023-05-06T02:38:42.817Z,2277.00
2023-05-06T02:39:42.814Z,2264.00
2023-05-06T02:40:42.825Z,2265.00
2023-05-06T02:41:42.832Z,2265.00
2023-05-06T02:42:42.869Z,2261.00
2023-05-06T02:43:42.911Z,2266.00
2023-05-06T02:44:42.879Z,2279.00
2023-05-06T02:45:42.967Z,2270.00
2023-05-06T02:46:42.953Z,2272.00
2023-05-06T02:47:43.006Z,2276.00
2023-05-06T02:48:43.046Z,2277.00
2023-05-06T02:49:43.047Z,2263.00
2023-05-06T02:50:43.016Z,2271.00
2023-05-06T02:51:43.055Z,2263.00
2023-05-06T02:52:43.055Z,2272.00
2023-05-06T02:53:43.091Z,2248.00
2023-05-06T02:54:43.101Z,2247.00
2023-05-06T02:55:43.111Z,2250.00
2023-05-06T02:56:43.137Z,2251.00
2023-05-06T02:57:43.223Z,2237.00
2023-05-06T02:58:43.195Z,2249.00
2023-05-06T02:59:43.227Z,2231.00
2023-05-06T03:00:43.216Z,2230.00
2023-05-06T03:01:43.315Z,2231.00
2023-05-06T03:02:43.370Z,2228.00
2023-05-06T03:03:43.287Z,2229.00
2023-05-06T03:04:43.383Z,2240.00
2023-05-06T03:05:44.367Z,2234.00
2023-05-06T03:06:43.396Z,2235.00
2023-05-06T03:07:43.515Z,2231.00
2023-05-06T03:08:43.473Z,2222.00
2023-05-06T03:09:43.491Z,2200.00
2023-05-06T03:10:43.628Z,2206.00
2023-05-06T03:11:43.503Z,2198.00
2023-05-06T03:12:43.572Z,2198.00
2023-05-06T03:13:43.619Z,2209.00
2023-05-06T03:14:43.617Z,2209.00
2023-05-06T03:15:43.669Z,2206.00
2023-05-06T03:16:43.679Z,2206.00
2023-05-06T03:17:44.138Z,2212.00
2023-05-06T03:18:43.715Z,2204.00
2023-05-06T03:19:43.748Z,2207.00
2023-05-06T03:20:43.801Z,2191.00
2023-05-06T03:21:43.898Z,2193.00
2023-05-06T03:22:43.857Z,2191.00
2023-05-06T03:23:43.853Z,2191.00
2023-05-06T03:24:43.913Z,2186.00
2023-05-06T03:25:43.963Z,2177.00
2023-05-06T03:26:44.026Z,2185.00
2023-05-06T03:27:44.009Z,2188.00
2023-05-06T03:28:43.989Z,2196.00
2023-05-06T03:29:44.017Z,2190.00
2023-05-06T03:30:44.084Z,2186.00
2023-05-06T03:31:44.112Z,2179.00
2023-05-06T03:32:44.127Z,2185.00
2023-05-06T03:33:44.144Z,2190.00
2023-05-06T03:34:44.169Z,2182.00
2023-05-06T03:35:44.219Z,2192.00
2023-05-06T03:36:44.378Z,2179.00
2023-05-06T03:37:44.292Z,2190.00
2023-05-06T03:38:44.296Z,2185.00
2023-05-06T03:39:44.329Z,2180.00
2023-05-06T03:40:44.336Z,2187.00
2023-05-06T03:41:44.358Z,2185.00
2023-05-06T03:42:44.394Z,2193.00
2023-05-06T03:43:44.457Z,2188.00
2023-05-06T03:44:44.478Z,2182.00
2023-05-06T03:45:44.478Z,2178.00
2023-05-06T03:46:44.587Z,2183.00
2023-05-06T03:47:44.592Z,2169.00
2023-05-06T03:48:44.593Z,2165.00
2023-05-06T03:49:44.601Z,2176.00
2023-05-06T03:50:44.982Z,2174.00
2023-05-06T03:51:44.684Z,2172.00
2023-05-06T03:52:44.731Z,2178.00
2023-05-06T03:53:44.751Z,2188.00
2023-05-06T03:54:45.009Z,2180.00
2023-05-06T03:55:44.806Z,2178.00
2023-05-06T03:56:44.856Z,2190.00
2023-05-06T03:57:44.938Z,2184.00
2023-05-06T03:58:44.873Z,2188.00
2023-05-06T03:59:44.938Z,2191.00
2023-05-06T04:00:44.945Z,2191.00
2023-05-06T04:01:45.018Z,2192.00
2023-05-06T04:02:46.001Z,2197.00
2023-05-06T04:03:45.146Z,2187.00
2023-05-06T04:04:45.077Z,2197.00
2023-05-06T04:05:45.086Z,2182.00
2023-05-06T04:06:45.133Z,2194.00
2023-05-06T04:07:45.146Z,2186.00
2023-05-06T04:08:45.214Z,2187.00
2023-05-06T04:09:45.225Z,2186.00
2023-05-06T04:10:45.237Z,2167.00
2023-05-06T04:11:45.277Z,2169.00
2023-05-06T04:12:45.335Z,2188.00
2023-05-06T04:13:45.344Z,2179.00
2023-05-06T04:14:45.423Z,2192.00
2023-05-06T04:15:45.355Z,2190.00
2023-05-06T04:16:45.452Z,2174.00
2023-05-06T04:17:45.527Z,2171.00
2023-05-06T04:18:45.477Z,2176.00
2023-05-06T04:19:45.439Z,2182.00
2023-05-06T04:20:45.501Z,2190.00
2023-05-06T04:21:46.005Z,2189.00
2023-05-06T04:22:45.556Z,2187.00
2023-05-06T04:23:45.620Z,2177.00
2023-05-06T04:24:47.484Z,2184.00
2023-05-06T04:25:45.626Z,2179.00
2023-05-06T04:26:45.644Z,2181.00
2023-05-06T04:27:45.641Z,2168.00
2023-05-06T04:28:45.704Z,2197.00
2023-05-06T04:29:45.703Z,2180.00
2023-05-06T04:30:45.933Z,2176.00
2023-05-06T04:31:45.803Z,2170.00
2023-05-06T04:32:45.841Z,2158.00
2023-05-06T04:33:45.848Z,2160.00
2023-05-06T04:34:45.842Z,2160.00
2023-05-06T04:35:45.905Z,2154.00
2023-05-06T04:36:45.964Z,2146.00
2023-05-06T04:37:45.911Z,2139.00
2023-05-06T04:38:45.945Z,2147.00
2023-05-06T04:39:45.956Z,2131.00
2023-05-06T04:40:45.998Z,2126.00
2023-05-06T04:41:46.045Z,2112.00
2023-05-06T04:42:46.057Z,2113.00
2023-05-06T04:43:46.115Z,2116.00
2023-05-06T04:44:46.125Z,2115.00
2023-05-06T04:45:46.567Z,2097.00
2023-05-06T04:46:46.262Z,2094.00
2023-05-06T04:47:46.278Z,2077.00
2023-05-06T04:48:46.258Z,2078.00
2023-05-06T04:49:46.284Z,2079.00
2023-05-06T04:50:46.307Z,2062.00
2023-05-06T04:51:46.334Z,2032.00
2023-05-06T04:52:46.340Z,2035.00
2023-05-06T04:53:46.365Z,2026.00
2023-05-06T04:54:46.393Z,2036.00
2023-05-06T04:55:46.407Z,2068.00
2023-05-06T04:56:46.427Z,2094.00
2023-05-06T04:57:46.521Z,2150.00
2023-05-06T04:58:46.502Z,2161.00
2023-05-06T04:59:46.567Z,2168.00
2023-05-06T05:00:46.561Z,2199.00
2023-05-06T05:01:46.685Z,2217.00
2023-05-06T05:02:46.678Z,2253.00
2023-05-06T05:03:46.833Z,2286.00
2023-05-06T05:04:46.704Z,2290.00
2023-05-06T05:05:46.712Z,2312.00
2023-05-06T05:06:46.715Z,2328.00
2023-05-06T05:07:47.533Z,2345.00
2023-05-06T05:08:46.744Z,2348.00
2023-05-06T05:09:46.776Z,2354.00
2023-05-06T05:10:46.750Z,2352.00
2023-05-06T05:11:46.852Z,2350.00
2023-05-06T05:12:46.868Z,2369.00
2023-05-06T05:13:46.884Z,2387.00
2023-05-06T05:14:46.862Z,2394.00
2023-05-06T05:15:46.898Z,2401.00
2023-05-06T05:16:46.938Z,2424.00
2023-05-06T05:17:46.971Z,2424.00
2023-05-06T05:18:46.998Z,2449.00
2023-05-06T05:19:47.027Z,2473.00
2023-05-06T05:20:47.050Z,2450.00
2023-05-06T05:21:47.067Z,2463.00
2023-05-06T05:22:47.186Z,2448.00
2023-05-06T05:23:47.152Z,2452.00
2023-05-06T05:24:47.109Z,2458.00
2023-05-06T05:25:47.183Z,2457.00
2023-05-06T05:26:47.205Z,2466.00
2023-05-06T05:27:47.287Z,2470.00
2023-05-06T05:28:47.270Z,2480.00
2023-05-06T05:29:47.317Z,2464.00
2023-05-06T05:30:47.483Z,2454.00
2023-05-06T05:31:47.458Z,2466.00
2023-05-06T05:32:47.557Z,2455.00
2023-05-06T05:33:47.482Z,2455.00
2023-05-06T05:34:47.455Z,2442.00
2023-05-06T05:35:47.439Z,2440.00
2023-05-06T05:36:47.481Z,2437.00
2023-05-06T05:37:48.045Z,2451.00
2023-05-06T05:38:47.591Z,2430.00
2023-05-06T05:39:47.603Z,2416.00
2023-05-06T05:40:47.612Z,2387.00
2023-05-06T05:41:47.663Z,2401.00
2023-05-06T05:42:47.687Z,2381.00
2023-05-06T05:43:47.733Z,2379.00
2023-05-06T05:44:47.767Z,2376.00
2023-05-06T05:45:47.833Z,2354.00
2023-05-06T05:46:47.952Z,2349.00
2023-05-06T05:47:47.862Z,2323.00
2023-05-06T05:48:47.916Z,2301.00
2023-05-06T05:49:47.924Z,2303.00
2023-05-06T05:50:47.974Z,2290.00
2023-05-06T05:51:47.977Z,2269.00
2023-05-06T05:52:48.046Z,2249.00
2023-05-06T05:53:48.008Z,2240.00
2023-05-06T05:54:48.053Z,2227.00
2023-05-06T05:55:48.095Z,2221.00
2023-05-06T05:56:48.136Z,2216.00
2023-05-06T05:57:48.197Z,2195.00
2023-05-06T05:58:48.214Z,2195.00
2023-05-06T05:59:48.261Z,2192.00
2023-05-06T06:00:48.309Z,2182.00
2023-05-06T06:01:48.278Z,2173.00
2023-05-06T06:02:48.384Z,2167.00
2023-05-06T06:03:48.485Z,2172.00
2023-05-06T06:04:48.382Z,2158.00
2023-05-06T06:05:48.442Z,2149.00
2023-05-06T06:06:48.408Z,2154.00
2023-05-06T06:07:48.498Z,2137.00
2023-05-06T06:08:48.506Z,2133.00
2023-05-06T06:09:48.526Z,2139.00
2023-05-06T06:10:48.536Z,2130.00
2023-05-06T06:11:48.601Z,2134.00
2023-05-06T06:12:48.641Z,2145.00
2023-05-06T06:13:48.616Z,2131.00
2023-05-06T06:14:48.700Z,2127.00
2023-05-06T06:15:48.764Z,2130.00
2023-05-06T06:16:48.744Z,2124.00
2023-05-06T06:17:48.820Z,2124.00
2023-05-06T06:18:48.787Z,2118.00
2023-05-06T06:19:48.804Z,2123.00
2023-05-06T06:20:49.645Z,2132.00
2023-05-06T06:21:48.888Z,2128.00
2023-05-06T06:22:48.953Z,2136.00
2023-05-06T06:23:48.936Z,2124.00
2023-05-06T06:24:48.995Z,2120.00
2023-05-06T06:25:48.978Z,2126.00
2023-05-06T06:26:49.097Z,2138.00
2023-05-06T06:27:49.104Z,2151.00
2023-05-06T06:28:49.135Z,2142.00
2023-05-06T06:29:49.107Z,2129.00
2023-05-06T06:30:49.146Z,2148.00
2023-05-06T06:31:49.220Z,2161.00
2023-05-06T06:32:49.331Z,2136.00
2023-05-06T06:33:49.350Z,2149.00
2023-05-06T06:34:49.252Z,2136.00
2023-05-06T06:35:49.327Z,2167.00
2023-05-06T06:36:49.369Z,2171.00
2023-05-06T06:37:49.410Z,2168.00
2023-05-06T06:38:49.505Z,2195.00
2023-05-06T06:39:49.443Z,2175.00
2023-05-06T06:40:49.500Z,2177.00
2023-05-06T06:41:49.524Z,2175.00
2023-05-06T06:42:49.606Z,2178.00
2023-05-06T06:43:49.574Z,2180.00
2023-05-06T06:44:49.686Z,2177.00
2023-05-06T06:45:49.694Z,2165.00
2023-05-06T06:46:49.669Z,2167.00
2023-05-06T06:47:49.730Z,2151.00
2023-05-06T06:48:49.783Z,2169.00
2023-05-06T06:49:49.788Z,2164.00
2023-05-06T06:50:49.816Z,2156.00
2023-05-06T06:51:49.899Z,2176.00
2023-05-06T06:52:49.921Z,2168.00
2023-05-06T06:53:49.933Z,2158.00
2023-05-06T06:54:49.920Z,2156.00
2023-05-06T06:55:50.081Z,2162.00
2023-05-06T06:56:50.033Z,2157.00
2023-05-06T06:57:50.085Z,2151.00
2023-05-06T06:58:52.383Z,2157.00
2023-05-06T06:59:50.084Z,2143.00
2023-05-06T07:00:50.147Z,2123.00
2023-05-06T07:01:50.116Z,2126.00
2023-05-06T07:02:50.077Z,2138.00
2023-05-06T07:03:50.105Z,2134.00
2023-05-06T07:04:50.077Z,2129.00
2023-05-06T07:05:50.035Z,2114.00
2023-05-06T07:06:50.019Z,2122.00
2023-05-06T07:07:50.026Z,2113.00
2023-05-06T07:08:50.053Z,2112.00
2023-05-06T07:09:50.056Z,2096.00
2023-05-06T07:10:50.240Z,2089.00
2023-05-06T07:11:50.072Z,2092.00
2023-05-06T07:12:50.065Z,2082.00
2023-05-06T07:13:50.033Z,2079.00
2023-05-06T07:14:50.022Z,2072.00
2023-05-06T07:15:49.970Z,2074.00
2023-05-06T07:16:51.441Z,2059.00
2023-05-06T07:17:49.995Z,2046.00
2023-05-06T07:18:49.958Z,2056.00
2023-05-06T07:19:50.014Z,2046.00
2023-05-06T07:20:50.016Z,2044.00
2023-05-06T07:21:49.941Z,2037.00
2023-05-06T07:22:49.931Z,2027.00
2023-05-06T07:23:49.974Z,2014.00
2023-05-06T07:24:49.933Z,1999.00
2023-05-06T07:25:49.934Z,1982.00
2023-05-06T07:26:49.953Z,1966.00
2023-05-06T07:27:49.980Z,1948.00
2023-05-06T07:28:49.915Z,1937.00
2023-05-06T07:29:49.892Z,1942.00
2023-05-06T07:30:49.978Z,1937.00
2023-05-06T07:31:49.862Z,1939.00
2023-05-06T07:32:49.883Z,1915.00
2023-05-06T07:33:49.853Z,1930.00
2023-05-06T07:34:49.890Z,1905.00
2023-05-06T07:35:50.615Z,1894.00
2023-05-06T07:36:49.865Z,1888.00
2023-05-06T07:37:49.852Z,1888.00
2023-05-06T07:38:49.821Z,1850.00
2023-05-06T07:39:49.830Z,1834.00
2023-05-06T07:40:49.857Z,1836.00
2023-05-06T07:41:49.915Z,1809.00
2023-05-06T07:42:49.982Z,1793.00
2023-05-06T07:43:49.963Z,1780.00
2023-05-06T07:44:49.980Z,1792.00
2023-05-06T07:45:50.063Z,1783.00
2023-05-06T07:46:50.228Z,1764.00
2023-05-06T07:47:50.220Z,1748.00
2023-05-06T07:48:50.150Z,1737.00
2023-05-06T07:49:50.181Z,1759.00
2023-05-06T07:50:50.165Z,1772.00
2023-05-06T07:51:50.215Z,1755.00
2023-05-06T07:52:50.222Z,1753.00
2023-05-06T07:53:50.304Z,1725.00
2023-05-06T07:54:50.294Z,1722.00
2023-05-06T07:55:50.303Z,1732.00
2023-05-06T07:56:50.373Z,1768.00
2023-05-06T07:57:50.463Z,1762.00
2023-05-06T07:58:50.496Z,1782.00
2023-05-06T07:59:50.539Z,1765.00
2023-05-06T08:00:51.093Z,1773.00
2023-05-06T08:01:50.464Z,1789.00
2023-05-06T08:02:50.550Z,1791.00
2023-05-06T08:03:50.657Z,1789.00
2023-05-06T08:04:51.758Z,1766.00
2023-05-06T08:05:50.579Z,1777.00
2023-05-06T08:06:50.617Z,1772.00
2023-05-06T08:07:50.634Z,1778.00
2023-05-06T08:08:51.113Z,1803.00
2023-05-06T08:09:50.741Z,1820.00
2023-05-06T08:10:50.749Z,1827.00
2023-05-06T08:11:50.793Z,1835.00
2023-05-06T08:12:50.847Z,1828.00
2023-05-06T08:13:50.891Z,1825.00
2023-05-06T08:14:50.894Z,1840.00
2023-05-06T08:15:50.917Z,1850.00
2023-05-06T08:16:51.122Z,1853.00
2023-05-06T08:17:50.993Z,1839.00
2023-05-06T08:18:50.964Z,1827.00
2023-05-06T08:19:51.000Z,1845.00
2023-05-06T08:20:51.097Z,1836.00
2023-05-06T08:21:51.075Z,1823.00
2023-05-06T08:22:51.094Z,1822.00
2023-05-06T08:23:51.150Z,1812.00
2023-05-06T08:24:51.217Z,1820.00
2023-05-06T08:25:51.228Z,1821.00
2023-05-06T08:26:51.222Z,1797.00
2023-05-06T08:27:51.275Z,1787.00
2023-05-06T08:28:51.282Z,1792.00
2023-05-06T08:29:51.321Z,1794.00
2023-05-06T08:30:51.394Z,1801.00
2023-05-06T08:31:51.400Z,1782.00
2023-05-06T08:32:51.494Z,1796.00
2023-05-06T08:33:53.868Z,1783.00
2023-05-06T08:34:51.447Z,1776.00
2023-05-06T08:35:51.465Z,1753.00
2023-05-06T08:36:51.395Z,1729.00
2023-05-06T08:37:51.417Z,1725.00
2023-05-06T08:38:51.410Z,1727.00
2023-05-06T08:39:51.382Z,1717.00
2023-05-06T08:40:51.367Z,1689.00
2023-05-06T08:41:51.392Z,1662.00
2023-05-06T08:42:51.414Z,1650.00
2023-05-06T08:43:51.345Z,1627.00
2023-05-06T08:44:51.345Z,1638.00
2023-05-06T08:45:51.404Z,1617.00
2023-05-06T08:46:51.388Z,1594.00
2023-05-06T08:47:51.364Z,1566.00
2023-05-06T08:48:51.325Z,1573.00
2023-05-06T08:49:51.342Z,1554.00
2023-05-06T08:50:51.300Z,1526.00
2023-05-06T08:51:51.314Z,1507.00
2023-05-06T08:52:51.292Z,1486.00
2023-05-06T08:53:51.310Z,1477.00
2023-05-06T08:54:51.277Z,1464.00
2023-05-06T08:55:51.267Z,1455.00
2023-05-06T08:56:51.640Z,1454.00
2023-05-06T08:57:51.298Z,1458.00
2023-05-06T08:58:51.243Z,1439.00
2023-05-06T08:59:51.257Z,1416.00
2023-05-06T09:00:51.292Z,1395.00
2023-05-06T09:01:51.233Z,1383.00
2023-05-06T09:02:51.278Z,1374.00
2023-05-06T09:03:51.681Z,1372.00
2023-05-06T09:04:51.233Z,1363.00
2023-05-06T09:05:51.179Z,1362.00
2023-05-06T09:06:51.194Z,1357.00
2023-05-06T09:07:51.219Z,1372.00
2023-05-06T09:08:51.157Z,1399.00
2023-05-06T09:09:51.165Z,1401.00
2023-05-06T09:10:51.179Z,1391.00
2023-05-06T09:11:51.184Z,1401.00
2023-05-06T09:12:51.251Z,1405.00
2023-05-06T09:13:51.241Z,1407.00
2023-05-06T09:14:51.220Z,1395.00
2023-05-06T09:15:51.108Z,1392.00
2023-05-06T09:16:51.173Z,1408.00
2023-05-06T09:17:51.295Z,1440.00
2023-05-06T09:18:51.112Z,1466.00
2023-05-06T09:19:51.123Z,1472.00
2023-05-06T09:20:51.097Z,1509.00
2023-05-06T09:21:51.083Z,1514.00
2023-05-06T09:22:51.042Z,1556.00
2023-05-06T09:23:51.075Z,1546.00
2023-05-06T09:24:51.056Z,1542.00
2023-05-06T09:25:51.632Z,1522.00
2023-05-06T09:26:51.013Z,1516.00
2023-05-06T09:27:51.039Z,1516.00
2023-05-06T09:28:51.037Z,1519.00
2023-05-06T09:29:51.006Z,1563.00
2023-05-06T09:30:51.017Z,1540.00
2023-05-06T09:31:51.004Z,1541.00
2023-05-06T09:32:51.075Z,1544.00
2023-05-06T09:33:50.970Z,1507.00
2023-05-06T09:34:51.045Z,1472.00
2023-05-06T09:35:50.993Z,1448.00
2023-05-06T09:36:50.951Z,1430.00
2023-05-06T09:37:50.969Z,1429.00
2023-05-06T09:38:50.945Z,1490.00
2023-05-06T09:39:50.917Z,1494.00
2023-05-06T09:40:50.933Z,1437.00
2023-05-06T09:41:50.931Z,1422.00
2023-05-06T09:42:50.940Z,1405.00
2023-05-06T09:43:50.936Z,1442.00
2023-05-06T09:44:50.926Z,1491.00
2023-05-06T09:45:50.945Z,1489.00
2023-05-06T09:46:50.958Z,1463.00
2023-05-06T09:47:50.894Z,1420.00
2023-05-06T09:48:50.872Z,1438.00
2023-05-06T09:49:50.874Z,1417.00
2023-05-06T09:50:51.043Z,1388.00
2023-05-06T09:51:50.841Z,1364.00
2023-05-06T09:52:50.864Z,1350.00
2023-05-06T09:53:51.212Z,1348.00
2023-05-06T09:54:50.856Z,1402.00
2023-05-06T09:55:50.830Z,1429.00
2023-05-06T09:56:50.823Z,1393.00
2023-05-06T09:57:50.817Z,1353.00
2023-05-06T09:58:50.843Z,1375.00
2023-05-06T09:59:50.765Z,1402.00
2023-05-06T10:00:50.808Z,1400.00
2023-05-06T10:01:50.850Z,1396.00
2023-05-06T10:02:51.064Z,1436.00
2023-05-06T10:03:50.950Z,1419.00
2023-05-06T10:04:51.337Z,1451.00
2023-05-06T10:05:50.888Z,1459.00
2023-05-06T10:06:50.896Z,1469.00
2023-05-06T10:07:50.896Z,1459.00
2023-05-06T10:08:50.945Z,1477.00
2023-05-06T10:09:51.003Z,1488.00
2023-05-06T10:10:50.976Z,1481.00
2023-05-06T10:11:50.962Z,1482.00
2023-05-06T10:12:50.986Z,1502.00
2023-05-06T10:13:50.953Z,1533.00
2023-05-06T10:14:50.992Z,1544.00
2023-05-06T10:15:51.022Z,1554.00
2023-05-06T10:16:51.065Z,1555.00
2023-05-06T10:17:51.143Z,1561.00
2023-05-06T10:18:51.084Z,1577.00
2023-05-06T10:19:51.083Z,1601.00
2023-05-06T10:20:51.148Z,1601.00
2023-05-06T10:21:51.091Z,1593.00
2023-05-06T10:22:51.292Z,1597.00
2023-05-06T10:23:51.103Z,1608.00
2023-05-06T10:24:51.173Z,1615.00
2023-05-06T10:25:51.232Z,1630.00
2023-05-06T10:26:51.227Z,1642.00
2023-05-06T10:27:51.242Z,1643.00
2023-05-06T10:28:51.250Z,1650.00
2023-05-06T10:29:51.249Z,1674.00
2023-05-06T10:30:51.254Z,1677.00
2023-05-06T10:31:51.296Z,1674.00
2023-05-06T10:32:51.338Z,1688.00
2023-05-06T10:33:51.315Z,1701.00
2023-05-06T10:34:51.313Z,1706.00
2023-05-06T10:35:51.306Z,1718.00
2023-05-06T10:36:51.390Z,1714.00
2023-05-06T10:37:51.365Z,1704.00
2023-05-06T10:38:51.507Z,1689.00
2023-05-06T10:39:51.408Z,1696.00
2023-05-06T10:40:51.441Z,1684.00
2023-05-06T10:41:52.207Z,1669.00
2023-05-06T10:42:51.509Z,1590.00
2023-05-06T10:43:51.478Z,1590.00
2023-05-06T10:44:51.486Z,1531.00
2023-05-06T10:45:51.535Z,1493.00
2023-05-06T10:46:51.549Z,1473.00
2023-05-06T10:47:51.665Z,1477.00
2023-05-06T10:48:51.571Z,1455.00
2023-05-06T10:49:51.581Z,1431.00
2023-05-06T10:50:51.651Z,1402.00
2023-05-06T10:51:51.653Z,1379.00
2023-05-06T10:52:51.666Z,1392.00
2023-05-06T10:53:51.693Z,1397.00
2023-05-06T10:54:51.862Z,1408.00
2023-05-06T10:55:51.700Z,1413.00
2023-05-06T10:56:51.730Z,1362.00
2023-05-06T10:57:51.733Z,1350.00
2023-05-06T10:58:51.733Z,1385.00
2023-05-06T10:59:51.826Z,1339.00
2023-05-06T11:00:51.885Z,1344.00
2023-05-06T11:01:51.793Z,1387.00
2023-05-06T11:02:51.880Z,1342.00
2023-05-06T11:03:51.864Z,1367.00
2023-05-06T11:04:51.884Z,1362.00
2023-05-06T11:05:51.856Z,1322.00
2023-05-06T11:06:51.889Z,1324.00
2023-05-06T11:07:51.879Z,1305.00
2023-05-06T11:08:51.926Z,1299.00
2023-05-06T11:09:51.957Z,1249.00
2023-05-06T11:10:51.967Z,1207.00
2023-05-06T11:11:51.988Z,1188.00
2023-05-06T11:12:52.018Z,1176.00
2023-05-06T11:13:52.018Z,1180.00
2023-05-06T11:14:52.067Z,1196.00
2023-05-06T11:15:52.156Z,1226.00
2023-05-06T11:16:52.122Z,1197.00
2023-05-06T11:17:52.156Z,1229.00
2023-05-06T11:18:52.183Z,1220.00
2023-05-06T11:19:52.176Z,1230.00
2023-05-06T11:20:52.207Z,1203.00
2023-05-06T11:21:52.181Z,1186.00
2023-05-06T11:22:52.203Z,1176.00
2023-05-06T11:23:52.263Z,1166.00
2023-05-06T11:24:52.256Z,1191.00
2023-05-06T11:25:52.251Z,1220.00
2023-05-06T11:26:52.326Z,1246.00
2023-05-06T11:27:52.329Z,1293.00
2023-05-06T11:28:52.698Z,1306.00
2023-05-06T11:29:52.415Z,1308.00
2023-05-06T11:30:52.379Z,1337.00
2023-05-06T11:31:52.383Z,1319.00
2023-05-06T11:32:52.429Z,1366.00
2023-05-06T11:33:52.483Z,1382.00
2023-05-06T11:34:52.431Z,1396.00
2023-05-06T11:35:52.492Z,1395.00
2023-05-06T11:36:52.509Z,1401.00
2023-05-06T11:37:52.583Z,1421.00
2023-05-06T11:38:52.688Z,1401.00
2023-05-06T11:39:52.568Z,1414.00
2023-05-06T11:40:52.646Z,1445.00
2023-05-06T11:41:52.653Z,1436.00
2023-05-06T11:42:52.820Z,1435.00
2023-05-06T11:43:52.758Z,1413.00
2023-05-06T11:44:52.664Z,1349.00
2023-05-06T11:45:52.819Z,1306.00
2023-05-06T11:46:52.815Z,1354.00
2023-05-06T11:47:52.906Z,1394.00
2023-05-06T11:48:52.800Z,1387.00
2023-05-06T11:49:52.924Z,1389.00
2023-05-06T11:50:52.812Z,1386.00
2023-05-06T11:51:52.930Z,1437.00
2023-05-06T11:52:52.861Z,1451.00
2023-05-06T11:53:52.869Z,1457.00
2023-05-06T11:54:52.913Z,1420.00
2023-05-06T11:55:52.944Z,1379.00
2023-05-06T11:56:52.888Z,1352.00
2023-05-06T11:57:52.957Z,1353.00
2023-05-06T11:58:52.999Z,1354.00
2023-05-06T11:59:53.008Z,1367.00
2023-05-06T12:00:53.015Z,1351.00
2023-05-06T12:01:53.026Z,1337.00
2023-05-06T12:02:53.169Z,1358.00
2023-05-06T12:03:53.189Z,1376.00
2023-05-06T12:04:53.231Z,1358.00
2023-05-06T12:05:53.129Z,1343.00